M V Monarch — ZGBV3 — position and weather

sailwx.info

Track history (hours):
 
Tides and Currents Weather Stations Pressure Air Temp Water Temp Dewpoint Dewpoint Depression Visibility Wind Speed Wind Dir Waves Ship Positions

M V Monarch

Last reported at 2017-Apr-25 19:35 UTC. Time now 2017-Apr-26 06:09 UTC.
Position N 18°32' W 066°13'.

Length 46 m; draft 2.6 m.

Type: Pleasure craft. MMSI: 319927000.

Date/timePositionNaut miles runAvg speedWind from/ knotsBaromVisibWave heightAir tempDewpointWater temp
2017-Apr-25 19:35N 18°32' W 066°13'112.5
2017-Apr-25 19:29N 18°32' W 066°11'612.4
2017-Apr-25 19:00N 18°31' W 066°05'612.4
2017-Apr-25 18:29N 18°31' W 065°58'6411.5
2017-Apr-25 12:55N 18°18' W 064°52'513.1
2017-Apr-25 12:30N 18°21' W 064°47'2 4.0
2017-Apr-25 11:56N 18°22' W 064°45'0 0.0
2017-Apr-25 11:26N 18°22' W 064°45'0 0.0
2017-Apr-25 10:56N 18°22' W 064°45'0 0.0
2017-Apr-25 10:14N 18°22' W 064°45'0 0.0
2017-Apr-25 09:44N 18°22' W 064°45'0 0.1
2017-Apr-25 09:26N 18°22' W 064°45'0 0.0
2017-Apr-25 08:56N 18°22' W 064°45'0 0.0
2017-Apr-25 08:26N 18°22' W 064°45'0 0.0
2017-Apr-25 07:32N 18°22' W 064°45'0 0.1
2017-Apr-25 07:26N 18°22' W 064°45'0 0.0
2017-Apr-25 06:56N 18°22' W 064°45'0 0.0
2017-Apr-25 06:26N 18°22' W 064°45'0 0.0
2017-Apr-25 05:50N 18°22' W 064°45'0 0.0
2017-Apr-25 05:26N 18°22' W 064°45'0 0.0
2017-Apr-25 04:50N 18°22' W 064°45'0 0.0
2017-Apr-25 04:23N 18°22' W 064°45'0 0.0
2017-Apr-25 03:53N 18°22' W 064°45'0 0.0
2017-Apr-25 03:29N 18°22' W 064°45'0 0.0
2017-Apr-25 02:59N 18°22' W 064°45'0 0.0
2017-Apr-25 02:23N 18°22' W 064°45'0 0.0
2017-Apr-25 01:59N 18°22' W 064°45'0 0.0
2017-Apr-25 01:29N 18°22' W 064°45'0 0.0
2017-Apr-24 22:50N 18°22' W 064°45'0 0.0
2017-Apr-24 22:14N 18°22' W 064°45'0 0.0
2017-Apr-24 21:56N 18°22' W 064°45'0 0.0
2017-Apr-24 21:20N 18°22' W 064°45'0 0.0
2017-Apr-24 20:50N 18°22' W 064°45'0 0.0
2017-Apr-24 20:26N 18°22' W 064°45'0 0.0
2017-Apr-24 19:56N 18°22' W 064°45'0 0.0
2017-Apr-24 18:56N 18°22' W 064°45'0 0.0
2017-Apr-24 18:30N 18°22' W 064°45'4 8.8
2017-Apr-24 18:00N 18°20' W 064°49'1 2.2
2017-Apr-24 17:29N 18°20' W 064°51'3 5.8
2017-Apr-24 17:00N 18°21' W 064°48'4 8.0
2017-Apr-24 16:30N 18°23' W 064°44'713.9
2017-Apr-24 16:00N 18°24' W 064°37'1 0.1
2017-Apr-24 02:47N 18°25' W 064°36'311.8
2017-Apr-24 02:30N 18°24' W 064°33'713.3
2017-Apr-24 01:57N 18°23' W 064°25'5713.6
2017-Apr-23 21:44N 18°08' W 063°27'513.6
2017-Apr-23 21:23N 18°07' W 063°22'613.9
2017-Apr-23 20:59N 18°05' W 063°17'813.7
2017-Apr-23 20:23N 18°03' W 063°08'3 7.0
2017-Apr-23 19:59N 18°02' W 063°06'0 0.2
2017-Apr-23 19:29N 18°02' W 063°05'0 0.0
2017-Apr-23 18:59N 18°02' W 063°05'0 0.0
2017-Apr-23 18:29N 18°02' W 063°05'0 0.0
2017-Apr-23 17:59N 18°02' W 063°05'0 0.0
2017-Apr-23 17:29N 18°02' W 063°05'0 0.0
2017-Apr-23 16:59N 18°02' W 063°05'0 0.0
2017-Apr-23 16:25N 18°02' W 063°05'0 0.0
2017-Apr-23 15:46N 18°02' W 063°05'0 0.0
2017-Apr-23 15:30N 18°02' W 063°05'0 0.0
2017-Apr-23 14:58N 18°02' W 063°05'0 0.0
2017-Apr-23 13:59N 18°02' W 063°05'1 1.2
2017-Apr-23 13:29N 18°02' W 063°06'  
2017-Apr-20 06:47N 16°48' W 062°19'413.1
2017-Apr-20 06:30N 16°44' W 062°18'713.4
2017-Apr-20 05:57N 16°38' W 062°14'613.3
2017-Apr-20 05:29N 16°33' W 062°10'913.3
2017-Apr-20 04:49N 16°26' W 062°05'613.2
2017-Apr-20 04:21N 16°21' W 062°01'513.4
2017-Apr-20 04:00N 16°17' W 061°58'813.4
2017-Apr-20 03:23N 16°10' W 061°54'913.2
2017-Apr-20 02:41N 16°02' W 061°49'213.1
2017-Apr-20 02:30N 16°00' W 061°47'712.8
2017-Apr-20 01:57N 15°54' W 061°44'613.1
2017-Apr-20 01:29N 15°49' W 061°40'813.4
2017-Apr-20 00:52N 15°42' W 061°35'  
Track history (hours):
 
Tides and Currents Weather Stations Pressure Air Temp Water Temp Dewpoint Dewpoint Depression Visibility Wind Speed Wind Dir Waves Ship Positions

M V Monarch

Last reported at 2017-Apr-25 19:35 UTC. Time now 2017-Apr-26 06:09 UTC.
Position N 18°32' W 066°13'.

Length 46 m; draft 2.6 m.

Type: Pleasure craft. MMSI: 319927000.

Date/timePositionNaut miles runAvg speedWind from/ knotsBaromVisibWave heightAir tempDewpointWater temp
2017-Apr-25 19:35N 18°32' W 066°13'112.5
2017-Apr-25 19:29N 18°32' W 066°11'612.4
2017-Apr-25 19:00N 18°31' W 066°05'612.4
2017-Apr-25 18:29N 18°31' W 065°58'6411.5
2017-Apr-25 12:55N 18°18' W 064°52'513.1
2017-Apr-25 12:30N 18°21' W 064°47'2 4.0
2017-Apr-25 11:56N 18°22' W 064°45'0 0.0
2017-Apr-25 11:26N 18°22' W 064°45'0 0.0
2017-Apr-25 10:56N 18°22' W 064°45'0 0.0
2017-Apr-25 10:14N 18°22' W 064°45'0 0.0
2017-Apr-25 09:44N 18°22' W 064°45'0 0.1
2017-Apr-25 09:26N 18°22' W 064°45'0 0.0
2017-Apr-25 08:56N 18°22' W 064°45'0 0.0
2017-Apr-25 08:26N 18°22' W 064°45'0 0.0
2017-Apr-25 07:32N 18°22' W 064°45'0 0.1
2017-Apr-25 07:26N 18°22' W 064°45'0 0.0
2017-Apr-25 06:56N 18°22' W 064°45'0 0.0
2017-Apr-25 06:26N 18°22' W 064°45'0 0.0
2017-Apr-25 05:50N 18°22' W 064°45'0 0.0
2017-Apr-25 05:26N 18°22' W 064°45'0 0.0
2017-Apr-25 04:50N 18°22' W 064°45'0 0.0
2017-Apr-25 04:23N 18°22' W 064°45'0 0.0
2017-Apr-25 03:53N 18°22' W 064°45'0 0.0
2017-Apr-25 03:29N 18°22' W 064°45'0 0.0
2017-Apr-25 02:59N 18°22' W 064°45'0 0.0
2017-Apr-25 02:23N 18°22' W 064°45'0 0.0
2017-Apr-25 01:59N 18°22' W 064°45'0 0.0
2017-Apr-25 01:29N 18°22' W 064°45'0 0.0
2017-Apr-24 22:50N 18°22' W 064°45'0 0.0
2017-Apr-24 22:14N 18°22' W 064°45'0 0.0
2017-Apr-24 21:56N 18°22' W 064°45'0 0.0
2017-Apr-24 21:20N 18°22' W 064°45'0 0.0
2017-Apr-24 20:50N 18°22' W 064°45'0 0.0
2017-Apr-24 20:26N 18°22' W 064°45'0 0.0
2017-Apr-24 19:56N 18°22' W 064°45'0 0.0
2017-Apr-24 18:56N 18°22' W 064°45'0 0.0
2017-Apr-24 18:30N 18°22' W 064°45'4 8.8
2017-Apr-24 18:00N 18°20' W 064°49'1 2.2
2017-Apr-24 17:29N 18°20' W 064°51'3 5.8
2017-Apr-24 17:00N 18°21' W 064°48'4 8.0
2017-Apr-24 16:30N 18°23' W 064°44'713.9
2017-Apr-24 16:00N 18°24' W 064°37'1 0.1
2017-Apr-24 02:47N 18°25' W 064°36'311.8
2017-Apr-24 02:30N 18°24' W 064°33'713.3
2017-Apr-24 01:57N 18°23' W 064°25'5713.6
2017-Apr-23 21:44N 18°08' W 063°27'513.6
2017-Apr-23 21:23N 18°07' W 063°22'613.9
2017-Apr-23 20:59N 18°05' W 063°17'813.7
2017-Apr-23 20:23N 18°03' W 063°08'3 7.0
2017-Apr-23 19:59N 18°02' W 063°06'0 0.2
2017-Apr-23 19:29N 18°02' W 063°05'0 0.0
2017-Apr-23 18:59N 18°02' W 063°05'0 0.0
2017-Apr-23 18:29N 18°02' W 063°05'0 0.0
2017-Apr-23 17:59N 18°02' W 063°05'0 0.0
2017-Apr-23 17:29N 18°02' W 063°05'0 0.0
2017-Apr-23 16:59N 18°02' W 063°05'0 0.0
2017-Apr-23 16:25N 18°02' W 063°05'0 0.0
2017-Apr-23 15:46N 18°02' W 063°05'0 0.0
2017-Apr-23 15:30N 18°02' W 063°05'0 0.0
2017-Apr-23 14:58N 18°02' W 063°05'0 0.0
2017-Apr-23 13:59N 18°02' W 063°05'1 1.2
2017-Apr-23 13:29N 18°02' W 063°06'  
2017-Apr-20 06:47N 16°48' W 062°19'413.1
2017-Apr-20 06:30N 16°44' W 062°18'713.4
2017-Apr-20 05:57N 16°38' W 062°14'613.3
2017-Apr-20 05:29N 16°33' W 062°10'913.3
2017-Apr-20 04:49N 16°26' W 062°05'613.2
2017-Apr-20 04:21N 16°21' W 062°01'513.4
2017-Apr-20 04:00N 16°17' W 061°58'813.4
2017-Apr-20 03:23N 16°10' W 061°54'913.2
2017-Apr-20 02:41N 16°02' W 061°49'213.1
2017-Apr-20 02:30N 16°00' W 061°47'712.8
2017-Apr-20 01:57N 15°54' W 061°44'613.1
2017-Apr-20 01:29N 15°49' W 061°40'813.4
2017-Apr-20 00:52N 15°42' W 061°35'  

Dump ship's entire track history